sensor_id;sensor_type;location;lat;lon;timestamp;pressure;altitude;pressure_sealevel;temperature;humidity
75317;BME280;63913;51.492;10.368;2023-08-07T00:01:56;97493.44;;;14.09;98.09
75317;BME280;63913;51.492;10.368;2023-08-07T00:04:22;97502.00;;;14.13;98.11
75317;BME280;63913;51.492;10.368;2023-08-07T00:06:47;97500.25;;;14.17;97.75
75317;BME280;63913;51.492;10.368;2023-08-07T00:09:12;97506.25;;;14.22;96.96
75317;BME280;63913;51.492;10.368;2023-08-07T00:11:38;97508.03;;;14.15;96.85
75317;BME280;63913;51.492;10.368;2023-08-07T00:14:03;97507.16;;;14.13;97.40
75317;BME280;63913;51.492;10.368;2023-08-07T00:16:29;97500.28;;;14.12;96.53
75317;BME280;63913;51.492;10.368;2023-08-07T00:18:54;97507.16;;;14.14;97.73
75317;BME280;63913;51.492;10.368;2023-08-07T00:21:22;97514.03;;;14.19;97.32
75317;BME280;63913;51.492;10.368;2023-08-07T00:23:48;97512.28;;;14.19;97.21
75317;BME280;63913;51.492;10.368;2023-08-07T00:26:14;97514.06;;;14.17;97.29
75317;BME280;63913;51.492;10.368;2023-08-07T00:28:40;97509.69;;;14.24;97.78
75317;BME280;63913;51.492;10.368;2023-08-07T00:31:05;97511.41;;;14.20;97.16
75317;BME280;63913;51.492;10.368;2023-08-07T00:33:31;97512.28;;;14.24;97.04
75317;BME280;63913;51.492;10.368;2023-08-07T00:35:56;97515.72;;;14.24;97.09
75317;BME280;63913;51.492;10.368;2023-08-07T00:38:22;97514.00;;;14.23;96.78
75317;BME280;63913;51.492;10.368;2023-08-07T00:40:47;97515.78;;;14.17;96.77
75317;BME280;63913;51.492;10.368;2023-08-07T00:43:12;97517.50;;;14.14;96.90
75317;BME280;63913;51.492;10.368;2023-08-07T00:45:42;97523.53;;;14.15;96.99
75317;BME280;63913;51.492;10.368;2023-08-07T00:48:08;97518.38;;;14.13;96.57
75317;BME280;63913;51.492;10.368;2023-08-07T00:50:34;97527.84;;;14.13;95.55
75317;BME280;63913;51.492;10.368;2023-08-07T00:53:00;97520.16;;;14.04;96.59
75317;BME280;63913;51.492;10.368;2023-08-07T00:55:25;97520.22;;;13.95;95.72
75317;BME280;63913;51.492;10.368;2023-08-07T00:57:51;97520.25;;;13.93;97.11
75317;BME280;63913;51.492;10.368;2023-08-07T01:00:17;97521.13;;;13.94;97.83
75317;BME280;63913;51.492;10.368;2023-08-07T01:02:42;97521.13;;;13.92;96.94
75317;BME280;63913;51.492;10.368;2023-08-07T01:05:09;97517.72;;;13.84;97.13
75317;BME280;63913;51.492;10.368;2023-08-07T01:07:34;97522.06;;;13.79;98.37
75317;BME280;63913;51.492;10.368;2023-08-07T01:10:00;97526.41;;;13.77;97.79
75317;BME280;63913;51.492;10.368;2023-08-07T01:12:45;97532.41;;;13.78;97.96
75317;BME280;63913;51.492;10.368;2023-08-07T01:15:16;97531.56;;;13.77;97.78
75317;BME280;63913;51.492;10.368;2023-08-07T01:17:44;97538.50;;;13.64;98.36
75317;BME280;63913;51.492;10.368;2023-08-07T01:20:11;97537.69;;;13.59;98.73
75317;BME280;63913;51.492;10.368;2023-08-07T01:22:37;97541.13;;;13.60;99.76
75317;BME280;63913;51.492;10.368;2023-08-07T01:25:02;97536.81;;;13.56;99.59
75317;BME280;63913;51.492;10.368;2023-08-07T01:30:27;97538.59;;;13.51;100.00
75317;BME280;63913;51.492;10.368;2023-08-07T01:35:29;97548.09;;;13.44;99.19
75317;BME280;63913;51.492;10.368;2023-08-07T01:37:56;97544.63;;;13.48;99.65
75317;BME280;63913;51.492;10.368;2023-08-07T01:40:22;97537.72;;;13.52;99.39
75317;BME280;63913;51.492;10.368;2023-08-07T01:42:49;97535.16;;;13.47;99.65
75317;BME280;63913;51.492;10.368;2023-08-07T01:45:22;97536.88;;;13.51;98.96
75317;BME280;63913;51.492;10.368;2023-08-07T01:47:48;97540.31;;;13.50;98.92
75317;BME280;63913;51.492;10.368;2023-08-07T01:50:14;97537.75;;;13.44;98.13
75317;BME280;63913;51.492;10.368;2023-08-07T01:52:40;97539.53;;;13.38;98.42
75317;BME280;63913;51.492;10.368;2023-08-07T01:55:05;97542.09;;;13.36;98.42
75317;BME280;63913;51.492;10.368;2023-08-07T01:57:30;97542.97;;;13.33;99.12
75317;BME280;63913;51.492;10.368;2023-08-07T01:59:56;97535.22;;;13.35;98.32
75317;BME280;63913;51.492;10.368;2023-08-07T02:02:21;97542.09;;;13.38;98.73
75317;BME280;63913;51.492;10.368;2023-08-07T02:04:47;97534.34;;;13.36;98.86
75317;BME280;63913;51.492;10.368;2023-08-07T02:07:13;97536.97;;;13.27;99.44
75317;BME280;63913;51.492;10.368;2023-08-07T02:09:38;97543.00;;;13.23;99.16
75317;BME280;63913;51.492;10.368;2023-08-07T02:12:04;97537.88;;;13.20;99.75
75317;BME280;63913;51.492;10.368;2023-08-07T02:14:29;97547.31;;;13.24;100.00
75317;BME280;63913;51.492;10.368;2023-08-07T02:16:55;97547.31;;;13.25;100.00
75317;BME280;63913;51.492;10.368;2023-08-07T02:19:20;97553.31;;;13.23;99.68
75317;BME280;63913;51.492;10.368;2023-08-07T02:21:46;97556.75;;;13.23;99.64
75317;BME280;63913;51.492;10.368;2023-08-07T02:24:12;97553.34;;;13.18;99.90
75317;BME280;63913;51.492;10.368;2023-08-07T02:26:39;97558.50;;;13.14;99.67
75317;BME280;63913;51.492;10.368;2023-08-07T02:29:04;97549.06;;;13.14;99.94
75317;BME280;63913;51.492;10.368;2023-08-07T02:31:31;97555.94;;;13.21;99.73
75317;BME280;63913;51.492;10.368;2023-08-07T02:33:57;97559.38;;;13.19;99.98
75317;BME280;63913;51.492;10.368;2023-08-07T02:36:22;97549.06;;;13.14;99.86
75317;BME280;63913;51.492;10.368;2023-08-07T02:38:48;97561.09;;;13.14;99.67
75317;BME280;63913;51.492;10.368;2023-08-07T02:41:13;97561.94;;;13.10;99.61
75317;BME280;63913;51.492;10.368;2023-08-07T02:43:38;97555.09;;;13.13;99.78
75317;BME280;63913;51.492;10.368;2023-08-07T02:46:04;97559.38;;;13.14;99.55
75317;BME280;63913;51.492;10.368;2023-08-07T02:48:30;97557.66;;;13.19;99.27
75317;BME280;63913;51.492;10.368;2023-08-07T02:50:56;97558.50;;;13.20;99.48
75317;BME280;63913;51.492;10.368;2023-08-07T02:53:21;97561.97;;;13.19;98.71
75317;BME280;63913;51.492;10.368;2023-08-07T02:55:47;97557.66;;;13.18;98.72
75317;BME280;63913;51.492;10.368;2023-08-07T02:58:12;97569.69;;;13.14;98.64
75317;BME280;63913;51.492;10.368;2023-08-07T03:00:37;97567.09;;;13.11;98.22
75317;BME280;63913;51.492;10.368;2023-08-07T03:03:03;97566.25;;;13.08;98.43
75317;BME280;63913;51.492;10.368;2023-08-07T03:05:29;97569.69;;;13.10;98.43
75317;BME280;63913;51.492;10.368;2023-08-07T03:07:54;97574.00;;;13.11;98.79
75317;BME280;63913;51.492;10.368;2023-08-07T03:10:19;97574.84;;;13.10;98.59
75317;BME280;63913;51.492;10.368;2023-08-07T03:12:45;97572.28;;;13.13;98.56
75317;BME280;63913;51.492;10.368;2023-08-07T03:15:11;97565.38;;;13.09;98.53
75317;BME280;63913;51.492;10.368;2023-08-07T03:17:37;97570.56;;;13.12;98.01
75317;BME280;63913;51.492;10.368;2023-08-07T03:20:03;97574.84;;;13.13;99.00
75317;BME280;63913;51.492;10.368;2023-08-07T03:22:29;97567.13;;;13.20;98.92
75317;BME280;63913;51.492;10.368;2023-08-07T03:24:55;97567.13;;;13.20;98.51
75317;BME280;63913;51.492;10.368;2023-08-07T03:27:20;97567.09;;;13.22;98.67
75317;BME280;63913;51.492;10.368;2023-08-07T03:29:46;97567.97;;;13.12;98.96
75317;BME280;63913;51.492;10.368;2023-08-07T03:32:12;97574.00;;;13.15;99.27
75317;BME280;63913;51.492;10.368;2023-08-07T03:34:37;97575.72;;;13.18;98.88
75317;BME280;63913;51.492;10.368;2023-08-07T03:37:04;97577.44;;;13.17;98.75
75317;BME280;63913;51.492;10.368;2023-08-07T03:39:30;97575.72;;;13.16;98.82
75317;BME280;63913;51.492;10.368;2023-08-07T03:41:56;97570.59;;;13.13;98.63
75317;BME280;63913;51.492;10.368;2023-08-07T03:44:22;97579.16;;;13.14;99.33
75317;BME280;63913;51.492;10.368;2023-08-07T03:46:48;97579.16;;;13.15;98.77
75317;BME280;63913;51.492;10.368;2023-08-07T03:49:13;97582.59;;;13.13;98.55
75317;BME280;63913;51.492;10.368;2023-08-07T03:51:39;97578.34;;;13.13;99.51
75317;BME280;63913;51.492;10.368;2023-08-07T03:54:04;97592.91;;;13.11;98.18
75317;BME280;63913;51.492;10.368;2023-08-07T03:56:31;97595.50;;;13.07;98.53
75317;BME280;63913;51.492;10.368;2023-08-07T03:59:02;97592.94;;;13.02;99.46
75317;BME280;63913;51.492;10.368;2023-08-07T04:01:28;97599.84;;;12.95;98.88
75317;BME280;63913;51.492;10.368;2023-08-07T04:03:54;97592.09;;;12.94;99.59
75317;BME280;63913;51.492;10.368;2023-08-07T04:06:19;97599.81;;;12.98;99.05
75317;BME280;63913;51.492;10.368;2023-08-07T04:08:47;97595.53;;;12.93;99.42
75317;BME280;63913;51.492;10.368;2023-08-07T04:11:13;97598.09;;;12.97;99.15
75317;BME280;63913;51.492;10.368;2023-08-07T04:13:38;97604.97;;;13.03;99.58
75317;BME280;63913;51.492;10.368;2023-08-07T04:16:04;97598.97;;;13.03;99.10
75317;BME280;63913;51.492;10.368;2023-08-07T04:18:33;97594.66;;;13.03;98.91
75317;BME280;63913;51.492;10.368;2023-08-07T04:21:00;97602.41;;;13.03;99.07
75317;BME280;63913;51.492;10.368;2023-08-07T04:23:26;97610.16;;;13.03;98.88
75317;BME280;63913;51.492;10.368;2023-08-07T04:25:53;97600.69;;;12.99;98.89
75317;BME280;63913;51.492;10.368;2023-08-07T04:28:18;97602.41;;;13.00;98.81
75317;BME280;63913;51.492;10.368;2023-08-07T04:30:45;97610.13;;;13.02;99.09
75317;BME280;63913;51.492;10.368;2023-08-07T04:33:13;97617.88;;;13.00;98.64
75317;BME280;63913;51.492;10.368;2023-08-07T04:35:39;97623.03;;;12.98;98.82
75317;BME280;63913;51.492;10.368;2023-08-07T04:38:05;97619.59;;;12.98;98.97
75317;BME280;63913;51.492;10.368;2023-08-07T04:40:30;97623.91;;;12.91;99.26
75317;BME280;63913;51.492;10.368;2023-08-07T04:42:56;97622.19;;;12.95;99.74
75317;BME280;63913;51.492;10.368;2023-08-07T04:45:21;97615.28;;;13.00;98.89
75317;BME280;63913;51.492;10.368;2023-08-07T04:47:47;97619.59;;;12.98;99.08
75317;BME280;63913;51.492;10.368;2023-08-07T04:50:12;97621.31;;;13.02;99.00
75317;BME280;63913;51.492;10.368;2023-08-07T04:52:38;97627.38;;;12.96;99.06
75317;BME280;63913;51.492;10.368;2023-08-07T04:55:04;97623.06;;;12.95;99.38
75317;BME280;63913;51.492;10.368;2023-08-07T04:57:29;97628.22;;;12.92;99.41
75317;BME280;63913;51.492;10.368;2023-08-07T04:59:55;97625.63;;;12.95;100.00
75317;BME280;63913;51.492;10.368;2023-08-07T05:02:20;97628.19;;;12.98;99.92
75317;BME280;63913;51.492;10.368;2023-08-07T05:04:46;97635.09;;;13.03;100.00
75317;BME280;63913;51.492;10.368;2023-08-07T05:07:11;97629.91;;;13.07;99.83
75317;BME280;63913;51.492;10.368;2023-08-07T05:09:37;97641.94;;;13.08;99.80
75317;BME280;63913;51.492;10.368;2023-08-07T05:12:03;97637.66;;;13.09;100.00
75317;BME280;63913;51.492;10.368;2023-08-07T05:14:29;97641.09;;;13.11;99.78
75317;BME280;63913;51.492;10.368;2023-08-07T05:16:55;97641.09;;;13.11;99.55
75317;BME280;63913;51.492;10.368;2023-08-07T05:19:20;97642.81;;;13.07;98.71
75317;BME280;63913;51.492;10.368;2023-08-07T05:21:49;97648.00;;;13.03;99.50
75317;BME280;63913;51.492;10.368;2023-08-07T05:24:16;97650.56;;;13.03;99.02
75317;BME280;63913;51.492;10.368;2023-08-07T05:26:42;97648.00;;;13.03;99.36
75317;BME280;63913;51.492;10.368;2023-08-07T05:29:07;97649.72;;;13.02;99.34
75317;BME280;63913;51.492;10.368;2023-08-07T05:31:33;97642.81;;;13.03;98.58
75317;BME280;63913;51.492;10.368;2023-08-07T05:33:58;97650.53;;;13.06;99.12
75317;BME280;63913;51.492;10.368;2023-08-07T05:36:24;97653.16;;;13.03;98.73
75317;BME280;63913;51.492;10.368;2023-08-07T05:38:49;97648.84;;;13.02;98.91
75317;BME280;63913;51.492;10.368;2023-08-07T05:41:15;97649.72;;;13.04;98.66
75317;BME280;63913;51.492;10.368;2023-08-07T05:43:41;97647.97;;;13.07;98.58
75317;BME280;63913;51.492;10.368;2023-08-07T05:46:06;97651.41;;;13.08;98.54
75317;BME280;63913;51.492;10.368;2023-08-07T05:48:32;97649.69;;;13.10;98.18
75317;BME280;63913;51.492;10.368;2023-08-07T05:50:57;97660.03;;;13.14;98.36
75317;BME280;63913;51.492;10.368;2023-08-07T05:53:23;97654.00;;;13.11;98.16
75317;BME280;63913;51.492;10.368;2023-08-07T05:55:48;97659.16;;;13.12;98.41
75317;BME280;63913;51.492;10.368;2023-08-07T05:58:13;97659.19;;;13.15;98.38
75317;BME280;63913;51.492;10.368;2023-08-07T06:00:39;97654.03;;;13.20;97.76
75317;BME280;63913;51.492;10.368;2023-08-07T06:03:04;97666.06;;;13.21;98.19
75317;BME280;63913;51.492;10.368;2023-08-07T06:05:29;97668.66;;;13.18;97.76
75317;BME280;63913;51.492;10.368;2023-08-07T06:07:55;97660.91;;;13.18;98.29
75317;BME280;63913;51.492;10.368;2023-08-07T06:10:20;97663.47;;;13.15;98.46
75317;BME280;63913;51.492;10.368;2023-08-07T06:12:46;97665.19;;;13.11;98.67
75317;BME280;63913;51.492;10.368;2023-08-07T06:15:11;97666.06;;;13.18;98.69
75317;BME280;63913;51.492;10.368;2023-08-07T06:17:36;97686.72;;;13.19;98.85
75317;BME280;63913;51.492;10.368;2023-08-07T06:20:07;97672.94;;;13.13;98.66
75317;BME280;63913;51.492;10.368;2023-08-07T06:22:34;97666.03;;;13.10;99.23
75317;BME280;63913;51.492;10.368;2023-08-07T06:25:00;97670.34;;;13.10;99.33
75317;BME280;63913;51.492;10.368;2023-08-07T06:27:25;97666.91;;;13.08;99.45
75317;BME280;63913;51.492;10.368;2023-08-07T06:29:51;97666.91;;;13.12;99.37
75317;BME280;63913;51.492;10.368;2023-08-07T06:32:16;97664.31;;;13.11;98.88
75317;BME280;63913;51.492;10.368;2023-08-07T06:34:43;97671.22;;;13.19;99.23
75317;BME280;63913;51.492;10.368;2023-08-07T06:37:09;97673.78;;;13.22;99.19
75317;BME280;63913;51.492;10.368;2023-08-07T06:39:34;97677.25;;;13.20;98.51
75317;BME280;63913;51.492;10.368;2023-08-07T06:41:59;97678.97;;;13.24;98.89
75317;BME280;63913;51.492;10.368;2023-08-07T06:44:30;97667.78;;;13.26;99.35
75317;BME280;63913;51.492;10.368;2023-08-07T06:46:55;97679.81;;;13.29;98.88
75317;BME280;63913;51.492;10.368;2023-08-07T06:49:21;97671.22;;;13.28;98.86
75317;BME280;63913;51.492;10.368;2023-08-07T06:51:47;97678.09;;;13.32;98.91
75317;BME280;63913;51.492;10.368;2023-08-07T06:54:12;97682.38;;;13.33;98.50
75317;BME280;63913;51.492;10.368;2023-08-07T06:56:37;97680.66;;;13.34;98.73
75317;BME280;63913;51.492;10.368;2023-08-07T06:59:06;97678.94;;;13.36;99.20
75317;BME280;63913;51.492;10.368;2023-08-07T07:01:31;97681.50;;;13.42;98.92
75317;BME280;63913;51.492;10.368;2023-08-07T07:03:57;97675.47;;;13.40;98.57
75317;BME280;63913;51.492;10.368;2023-08-07T07:06:22;97684.09;;;13.45;98.35
75317;BME280;63913;51.492;10.368;2023-08-07T07:08:50;97684.94;;;13.40;98.52
75317;BME280;63913;51.492;10.368;2023-08-07T07:11:20;97691.84;;;13.39;98.50
75317;BME280;63913;51.492;10.368;2023-08-07T07:13:46;97684.09;;;13.41;98.72
75317;BME280;63913;51.492;10.368;2023-08-07T07:16:11;97692.69;;;13.38;98.33
75317;BME280;63913;51.492;10.368;2023-08-07T07:18:38;97692.69;;;13.44;98.73
75317;BME280;63913;51.492;10.368;2023-08-07T07:21:04;97704.72;;;13.47;98.88
75317;BME280;63913;51.492;10.368;2023-08-07T07:23:29;97703.88;;;13.40;99.37
75317;BME280;63913;51.492;10.368;2023-08-07T07:25:55;97708.19;;;13.41;100.00
75317;BME280;63913;51.492;10.368;2023-08-07T07:28:20;97714.22;;;13.45;100.00
75317;BME280;63913;51.492;10.368;2023-08-07T07:30:46;97713.34;;;13.47;100.00
75317;BME280;63913;51.492;10.368;2023-08-07T07:33:11;97715.94;;;13.50;100.00
75317;BME280;63913;51.492;10.368;2023-08-07T07:35:39;97721.06;;;13.55;99.95
75317;BME280;63913;51.492;10.368;2023-08-07T07:38:05;97716.78;;;13.52;100.00
75317;BME280;63913;51.492;10.368;2023-08-07T07:40:31;97727.97;;;13.56;100.00
75317;BME280;63913;51.492;10.368;2023-08-07T07:42:56;97724.50;;;13.57;100.00
75317;BME280;63913;51.492;10.368;2023-08-07T07:45:22;97737.44;;;13.61;99.30
75317;BME280;63913;51.492;10.368;2023-08-07T07:47:47;97732.28;;;13.60;100.00
75317;BME280;63913;51.492;10.368;2023-08-07T07:50:12;97728.81;;;13.55;100.00
75317;BME280;63913;51.492;10.368;2023-08-07T07:52:39;97738.31;;;13.53;100.00
75317;BME280;63913;51.492;10.368;2023-08-07T07:55:05;97750.38;;;13.54;100.00
75317;BME280;63913;51.492;10.368;2023-08-07T07:57:30;97742.63;;;13.49;99.99
75317;BME280;63913;51.492;10.368;2023-08-07T07:59:58;97755.50;;;13.46;100.00
75317;BME280;63913;51.492;10.368;2023-08-07T08:02:24;97754.69;;;13.44;100.00
75317;BME280;63913;51.492;10.368;2023-08-07T08:04:51;97758.13;;;13.43;99.40
75317;BME280;63913;51.492;10.368;2023-08-07T08:07:16;97769.28;;;13.47;99.29
75317;BME280;63913;51.492;10.368;2023-08-07T08:09:42;97766.75;;;13.45;98.44
75317;BME280;63913;51.492;10.368;2023-08-07T08:12:07;97774.47;;;13.48;98.94
75317;BME280;63913;51.492;10.368;2023-08-07T08:14:33;97777.91;;;13.49;98.36
75317;BME280;63913;51.492;10.368;2023-08-07T08:16:58;97768.44;;;13.51;99.07
75317;BME280;63913;51.492;10.368;2023-08-07T08:19:24;97766.72;;;13.53;99.00
75317;BME280;63913;51.492;10.368;2023-08-07T08:21:49;97773.59;;;13.60;98.70
75317;BME280;63913;51.492;10.368;2023-08-07T08:24:14;97777.03;;;13.63;98.15
75317;BME280;63913;51.492;10.368;2023-08-07T08:26:40;97781.31;;;13.63;98.22
75317;BME280;63913;51.492;10.368;2023-08-07T08:29:06;97783.03;;;13.71;98.09
75317;BME280;63913;51.492;10.368;2023-08-07T08:31:31;97783.91;;;13.78;97.80
75317;BME280;63913;51.492;10.368;2023-08-07T08:33:57;97783.00;;;13.79;97.98
75317;BME280;63913;51.492;10.368;2023-08-07T08:36:23;97785.59;;;13.81;96.74
75317;BME280;63913;51.492;10.368;2023-08-07T08:38:48;97789.06;;;13.83;97.39
75317;BME280;63913;51.492;10.368;2023-08-07T08:41:14;97789.03;;;13.87;97.13
75317;BME280;63913;51.492;10.368;2023-08-07T08:43:40;97797.66;;;13.91;96.78
75317;BME280;63913;51.492;10.368;2023-08-07T08:46:06;97800.22;;;13.89;97.10
75317;BME280;63913;51.492;10.368;2023-08-07T08:48:38;97789.94;;;13.77;96.17
75317;BME280;63913;51.492;10.368;2023-08-07T08:51:04;97810.56;;;13.79;97.42
75317;BME280;63913;51.492;10.368;2023-08-07T08:53:30;97800.25;;;13.82;96.92
75317;BME280;63913;51.492;10.368;2023-08-07T08:55:56;97806.28;;;13.85;96.80
75317;BME280;63913;51.492;10.368;2023-08-07T08:58:22;97797.66;;;13.89;96.25
75317;BME280;63913;51.492;10.368;2023-08-07T09:00:48;97801.09;;;13.88;95.08
75317;BME280;63913;51.492;10.368;2023-08-07T09:03:13;97808.00;;;13.94;95.28
75317;BME280;63913;51.492;10.368;2023-08-07T09:05:39;97813.13;;;13.95;94.15
75317;BME280;63913;51.492;10.368;2023-08-07T09:08:05;97812.25;;;14.04;95.19
75317;BME280;63913;51.492;10.368;2023-08-07T09:10:32;97814.84;;;14.10;94.14
75317;BME280;63913;51.492;10.368;2023-08-07T09:13:01;97813.97;;;14.09;93.66
75317;BME280;63913;51.492;10.368;2023-08-07T09:15:29;97807.88;;;14.20;93.35
75317;BME280;63913;51.492;10.368;2023-08-07T09:17:57;97804.44;;;14.19;93.39
75317;BME280;63913;51.492;10.368;2023-08-07T09:20:24;97813.94;;;14.22;93.38
75317;BME280;63913;51.492;10.368;2023-08-07T09:22:50;97807.88;;;14.33;93.15
75317;BME280;63913;51.492;10.368;2023-08-07T09:25:26;97812.19;;;14.39;91.62
75317;BME280;63913;51.492;10.368;2023-08-07T09:27:54;97825.06;;;14.36;90.84
75317;BME280;63913;51.492;10.368;2023-08-07T09:30:20;97819.94;;;14.30;90.91
75317;BME280;63913;51.492;10.368;2023-08-07T09:32:47;97819.06;;;14.32;92.05
75317;BME280;63913;51.492;10.368;2023-08-07T09:35:13;97818.22;;;14.33;90.21
75317;BME280;63913;51.492;10.368;2023-08-07T09:37:38;97842.34;;;14.41;88.95
75317;BME280;63913;51.492;10.368;2023-08-07T09:40:04;97825.06;;;14.51;89.37
75317;BME280;63913;51.492;10.368;2023-08-07T09:42:31;97839.66;;;14.60;88.84
75317;BME280;63913;51.492;10.368;2023-08-07T09:45:00;97837.09;;;14.66;89.14
75317;BME280;63913;51.492;10.368;2023-08-07T09:47:25;97825.00;;;14.65;88.39
75317;BME280;63913;51.492;10.368;2023-08-07T09:49:54;97832.75;;;14.65;88.96
75317;BME280;63913;51.492;10.368;2023-08-07T09:52:20;97847.41;;;14.73;88.80
75317;BME280;63913;51.492;10.368;2023-08-07T09:54:45;97822.34;;;14.80;86.55
75317;BME280;63913;51.492;10.368;2023-08-07T09:57:11;97830.97;;;14.77;86.10
75317;BME280;63913;51.492;10.368;2023-08-07T09:59:36;97827.50;;;14.81;86.65
75317;BME280;63913;51.492;10.368;2023-08-07T10:02:03;97836.13;;;14.82;85.60
75317;BME280;63913;51.492;10.368;2023-08-07T10:04:29;97835.28;;;14.80;85.65
75317;BME280;63913;51.492;10.368;2023-08-07T10:06:56;97830.06;;;14.87;86.47
75317;BME280;63913;51.492;10.368;2023-08-07T10:09:21;97838.63;;;14.97;85.89
75317;BME280;63913;51.492;10.368;2023-08-07T10:11:48;97839.41;;;15.14;84.64
75317;BME280;63913;51.492;10.368;2023-08-07T10:14:14;97845.22;;;15.41;84.42
75317;BME280;63913;51.492;10.368;2023-08-07T10:16:40;97873.63;;;15.57;82.04
75317;BME280;63913;51.492;10.368;2023-08-07T10:19:07;97847.69;;;15.62;81.24
75317;BME280;63913;51.492;10.368;2023-08-07T10:21:38;97839.88;;;15.65;81.66
75317;BME280;63913;51.492;10.368;2023-08-07T10:24:04;97850.28;;;15.62;81.73
75317;BME280;63913;51.492;10.368;2023-08-07T10:26:33;97843.44;;;15.52;81.31
75317;BME280;63913;51.492;10.368;2023-08-07T10:29:04;97851.25;;;15.47;81.65
75317;BME280;63913;51.492;10.368;2023-08-07T10:31:33;97857.41;;;15.31;81.89
75317;BME280;63913;51.492;10.368;2023-08-07T10:34:01;97847.13;;;15.22;82.17
75317;BME280;63913;51.492;10.368;2023-08-07T10:36:33;97850.56;;;15.18;81.89
75317;BME280;63913;51.492;10.368;2023-08-07T10:39:09;97844.53;;;15.19;82.29
75317;BME280;63913;51.492;10.368;2023-08-07T10:41:39;97851.44;;;15.20;85.12
75317;BME280;63913;51.492;10.368;2023-08-07T10:44:05;97855.81;;;15.09;86.13
75317;BME280;63913;51.492;10.368;2023-08-07T10:46:46;97864.47;;;15.02;85.91
75317;BME280;63913;51.492;10.368;2023-08-07T10:49:30;97858.50;;;14.94;86.62
75317;BME280;63913;51.492;10.368;2023-08-07T10:51:56;97873.16;;;14.95;88.60
75317;BME280;63913;51.492;10.368;2023-08-07T10:54:23;97872.28;;;14.94;87.13
75317;BME280;63913;51.492;10.368;2023-08-07T10:56:53;97873.13;;;15.01;87.06
75317;BME280;63913;51.492;10.368;2023-08-07T10:59:19;97876.59;;;14.98;85.82
75317;BME280;63913;51.492;10.368;2023-08-07T11:01:51;97877.47;;;14.93;84.94
75317;BME280;63913;51.492;10.368;2023-08-07T11:04:17;97869.75;;;14.86;86.77
75317;BME280;63913;51.492;10.368;2023-08-07T11:06:46;97862.03;;;14.82;86.39
75317;BME280;63913;51.492;10.368;2023-08-07T11:09:12;97874.97;;;14.80;88.64
75317;BME280;63913;51.492;10.368;2023-08-07T11:11:43;97881.03;;;14.73;88.24
75317;BME280;63913;51.492;10.368;2023-08-07T11:14:10;97879.34;;;14.65;88.74
75317;BME280;63913;51.492;10.368;2023-08-07T11:16:36;97894.88;;;14.66;89.53
75317;BME280;63913;51.492;10.368;2023-08-07T11:19:02;97897.44;;;14.69;92.01
75317;BME280;63913;51.492;10.368;2023-08-07T11:21:30;97894.03;;;14.54;91.46
75317;BME280;63913;51.492;10.368;2023-08-07T11:23:56;97905.25;;;14.43;94.06
75317;BME280;63913;51.492;10.368;2023-08-07T11:26:21;97892.38;;;14.27;94.88
75317;BME280;63913;51.492;10.368;2023-08-07T11:28:47;97893.22;;;14.24;97.08
75317;BME280;63913;51.492;10.368;2023-08-07T11:31:13;97891.50;;;14.23;98.72
75317;BME280;63913;51.492;10.368;2023-08-07T11:33:40;97888.06;;;14.23;98.90
75317;BME280;63913;51.492;10.368;2023-08-07T11:36:14;97883.72;;;14.28;100.00
75317;BME280;63913;51.492;10.368;2023-08-07T11:38:41;97896.66;;;14.32;99.90
75317;BME280;63913;51.492;10.368;2023-08-07T11:41:12;97898.38;;;14.35;99.74
75317;BME280;63913;51.492;10.368;2023-08-07T11:43:38;97905.28;;;14.40;100.00
75317;BME280;63913;51.492;10.368;2023-08-07T11:46:05;97899.25;;;14.41;97.55
75317;BME280;63913;51.492;10.368;2023-08-07T11:48:34;97898.38;;;14.44;99.92
75317;BME280;63913;51.492;10.368;2023-08-07T11:51:00;97907.00;;;14.49;100.00
75317;BME280;63913;51.492;10.368;2023-08-07T11:53:29;97917.31;;;14.54;99.58
75317;BME280;63913;51.492;10.368;2023-08-07T11:56:12;97919.09;;;14.41;99.85
75317;BME280;63913;51.492;10.368;2023-08-07T11:58:44;97922.50;;;14.28;98.77
75317;BME280;63913;51.492;10.368;2023-08-07T12:01:15;97919.94;;;14.20;100.00
75317;BME280;63913;51.492;10.368;2023-08-07T12:03:50;97922.53;;;14.20;100.00
75317;BME280;63913;51.492;10.368;2023-08-07T12:06:16;97921.66;;;14.35;100.00
75317;BME280;63913;51.492;10.368;2023-08-07T12:08:42;97928.53;;;14.37;100.00
75317;BME280;63913;51.492;10.368;2023-08-07T12:11:09;97927.72;;;14.40;100.00
75317;BME280;63913;51.492;10.368;2023-08-07T12:13:37;97916.47;;;14.44;100.00
75317;BME280;63913;51.492;10.368;2023-08-07T12:16:03;97919.06;;;14.38;99.85
75317;BME280;63913;51.492;10.368;2023-08-07T12:18:29;97919.94;;;14.43;99.84
75317;BME280;63913;51.492;10.368;2023-08-07T12:21:00;97920.78;;;14.36;98.36
75317;BME280;63913;51.492;10.368;2023-08-07T12:23:25;97913.03;;;14.45;98.89
75317;BME280;63913;51.492;10.368;2023-08-07T12:25:51;97913.84;;;14.64;98.58
75317;BME280;63913;51.492;10.368;2023-08-07T12:28:18;97918.94;;;14.85;99.54
75317;BME280;63913;51.492;10.368;2023-08-07T12:30:47;97911.13;;;14.94;99.01
75317;BME280;63913;51.492;10.368;2023-08-07T12:33:13;97913.66;;;15.05;99.35
75317;BME280;63913;51.492;10.368;2023-08-07T12:35:39;97902.50;;;14.94;94.01
75317;BME280;63913;51.492;10.368;2023-08-07T12:38:05;97894.81;;;14.81;94.92
75317;BME280;63913;51.492;10.368;2023-08-07T12:40:30;97903.41;;;14.85;95.52
75317;BME280;63913;51.492;10.368;2023-08-07T12:42:56;97901.72;;;14.81;95.05
75317;BME280;63913;51.492;10.368;2023-08-07T12:45:23;97909.50;;;14.73;95.46
75317;BME280;63913;51.492;10.368;2023-08-07T12:47:48;97924.16;;;14.71;99.09
75317;BME280;63913;51.492;10.368;2023-08-07T12:50:14;97930.22;;;14.64;99.24
75317;BME280;63913;51.492;10.368;2023-08-07T12:52:39;97932.81;;;14.60;97.66